Flight Track Log - Related Links

Times and Time Zones

All times are in EDT time to prevent confusion due to time zone crossing. See the UAL235 flight status page for this flight to view local times or setup timezone preferences in your user account.


Time Position Orientation Groundspeed Altitude Reporting Facility
EDT Latitude Longitude Course Direction KTS MPH feet Rate Location/Type
Thu 05:43:49 PM 39.7833 -104.6833 247° West 208 239 7,500  Level Denver TRACON
Thu 05:44:49 PM 39.7500 -104.7667 243° Southwest 285 328 9,500 2,049 Climbing Denver TRACON
Thu 05:45:00 PM 39.7862 -105.0665 258° West  Level FlightAware Approximate
Thu 05:45:11 PM 39.7547 -104.8061 279° West 288 331 10,300  Level Denver Center
Thu 05:46:00 PM 39.7667 -105.2001 270° West  Level FlightAware Approximate
Thu 05:46:13 PM 39.7589 -104.9233 273° West 320 368 12,900  Level Denver Center
Thu 05:47:00 PM 39.7468 -105.3330 255° West  Level FlightAware Approximate
Thu 05:47:15 PM 39.7775 -105.0481 281° West 324 373 16,300  Level Denver Center
Thu 05:48:00 PM 39.7251 -105.4662 261° West  Level FlightAware Approximate
Thu 05:48:17 PM 39.7917 -105.1697 279° West 338 389 18,800  Level Denver Center
Thu 05:49:00 PM 39.7009 -105.5972 247° West  Level FlightAware Approximate
Thu 05:49:19 PM 39.7742 -105.2983 260° West 340 391 21,400  Level Denver Center
Thu 05:50:22 PM 39.7517 -105.4175 256° West 341 392 23,300 1,680 Climbing Denver Center
Thu 05:51:24 PM 39.7247 -105.5408 254° West 354 407 24,900 1,694 Climbing Denver Center
Thu 05:52:26 PM 39.6969 -105.6794 255° West 368 423 26,800 1,742 Climbing Denver Center
Thu 05:53:28 PM 39.6836 -105.8128 263° West 375 432 28,500 1,403 Climbing Denver Center
Thu 05:54:30 PM 39.6689 -105.9328 261° West 370 426 29,700 1,210 Climbing Denver Center
Thu 05:55:32 PM 39.6497 -106.1006 262° West 389 448 31,000 1,258 Climbing Denver Center
Thu 05:56:34 PM 39.6344 -106.2450 262° West 401 461 32,300 1,452 Climbing Denver Center
Thu 05:57:36 PM 39.6050 -106.3828 255° West 397 457 34,000 1,403 Climbing Denver Center
Thu 05:58:38 PM 39.5575 -106.5272 247° West 394 453 35,200 968 Climbing Denver Center
Thu 05:59:40 PM 39.5175 -106.6522 248° West 393 452 36,000 387 Climbing Denver Center
Thu 06:00:42 PM 39.4711 -106.7950 247° West 387 445 36,000  Level Denver Center
Thu 06:01:44 PM 39.4300 -106.9219 247° West 395 455 36,000  Level Denver Center
Thu 06:02:46 PM 39.4006 -107.0517 254° West 394 453 36,000  Level Denver Center
Thu 06:03:48 PM 39.3617 -107.2042 252° West 399 459 36,000  Level Denver Center
Thu 06:04:50 PM 39.3286 -107.3347 252° West 400 460 36,000 -48 Level Denver Center
Thu 06:05:52 PM 39.2906 -107.4856 252° West 396 456 35,900  Descending Denver Center
Thu 06:06:54 PM 39.2569 -107.6153 252° West 396 456 36,000 48 Climbing Denver Center
Thu 06:07:56 PM 39.2175 -107.7664 251° West 398 458 36,000  Level Denver Center
Thu 06:08:58 PM 39.1850 -107.8958 252° West 397 457 36,000 -48 Level Denver Center
Thu 06:10:00 PM 39.1456 -108.0464 251° West 397 457 35,900  Descending Denver Center
Thu 06:11:02 PM 39.1122 -108.1758 252° West 396 456 36,000 48 Climbing Denver Center
Thu 06:12:04 PM 39.0722 -108.3275 251° West 399 459 36,000  Level Denver Center
Thu 06:13:06 PM 39.0372 -108.4569 251° West 399 459 36,000  Level Denver Center
Thu 06:14:08 PM 39.0028 -108.5889 251° West 402 463 36,000 -48 Level Denver Center
Thu 06:15:10 PM 38.9619 -108.7400 251° West 402 463 35,900  Descending Denver Center
Thu 06:16:12 PM 38.9267 -108.8717 251° West 405 466 36,000 48 Climbing Denver Center
Thu 06:17:14 PM 38.8858 -109.0250 251° West 407 468 36,000  Level Denver Center
Thu 06:18:16 PM 38.8503 -109.1561 251° West 407 468 36,000  Level Denver Center
Thu 06:19:18 PM 38.8078 -109.3075 250° West 404 465 36,000  Level Denver Center
Thu 06:20:20 PM 38.7736 -109.4389 252° West 404 465 36,000  Level Denver Center
Thu 06:21:23 PM 38.7297 -109.5911 250° West 407 468 36,000  Level Denver Center
Thu 06:22:25 PM 38.6942 -109.7217 251° West 406 467 36,000  Level Denver Center
Thu 06:23:42 PM 38.6453 -109.8989 251° West 411 473 36,000  Level Salt Lake Center
Thu 06:24:41 PM 38.6075 -110.0297 250° West 413 475 36,000  Level Denver Center
Thu 06:25:43 PM 38.5636 -110.1844 250° West 415 478 36,000  Level Denver Center
Thu 06:26:45 PM 38.5261 -110.3158 250° West 412 474 36,000  Level Denver Center
Thu 06:27:47 PM 38.4839 -110.4675 250° West 407 468 36,000  Level Denver Center
Thu 06:28:49 PM 38.4453 -110.5994 250° West 413 475 36,000  Level Denver Center
Thu 06:29:53 PM 38.3967 -110.7514 248° West 413 475 36,000  Level Salt Lake Center
Thu 06:30:54 PM 38.3419 -110.8728 240° Southwest 413 475 36,000  Level Salt Lake Center
Thu 06:31:55 PM 38.2875 -110.9906 240° Southwest 414 476 36,000  Level Denver Center
Thu 06:32:57 PM 38.2206 -111.1408 240° Southwest 407 468 36,000  Level Denver Center
Thu 06:33:59 PM 38.1622 -111.2672 240° Southwest 414 476 36,000  Level Denver Center
Thu 06:35:02 PM 38.1075 -111.3936 241° Southwest 410 472 36,000  Level Salt Lake Center
Thu 06:36:04 PM 38.0506 -111.5200 240° Southwest 413 475 36,000  Level Salt Lake Center
Thu 06:37:06 PM 37.9919 -111.6458 239° Southwest 414 476 36,000  Level Salt Lake Center
Thu 06:38:07 PM 37.9331 -111.7700 239° Southwest 413 475 36,000  Level Salt Lake Center
Thu 06:39:09 PM 37.8650 -111.9231 241° Southwest 415 478 36,000  Level Salt Lake Center
Thu 06:40:49 PM 37.7706 -112.1233 239° Southwest 416 479 36,000  Level Los Angeles Center
Thu 06:41:13 PM 37.7494 -112.1744 242° Southwest 414 476 36,000  Level Salt Lake Center
Thu 06:42:15 PM 37.6906 -112.2997 239° Southwest 414 476 36,000  Level Salt Lake Center
Thu 06:43:17 PM 37.6189 -112.4133 231° Southwest 413 475 36,000  Level Salt Lake Center
Thu 06:44:18 PM 37.5456 -112.5275 231° Southwest 415 478 36,000  Level Salt Lake Center
Thu 06:45:20 PM 37.4725 -112.6419 231° Southwest 415 478 36,000  Level Salt Lake Center
Thu 06:46:22 PM 37.3975 -112.7569 231° Southwest 416 479 36,000  Level Salt Lake Center
Thu 06:47:02 PM 37.3375 -112.8500 231° Southwest 420 483 36,000  Level Los Angeles Center
Thu 06:47:24 PM 37.3231 -112.8725 231° Southwest 419 482 36,000  Level Salt Lake Center
Thu 06:48:26 PM 37.2347 -113.0089 231° Southwest 417 480 36,000  Level Salt Lake Center
Thu 06:49:28 PM 37.1617 -113.1211 231° Southwest 415 478 36,000  Level Salt Lake Center
Thu 06:50:08 PM 37.1183 -113.1886 231° Southwest 414 476 36,000  Level Los Angeles Center
Thu 06:51:10 PM 37.0447 -113.3011 231° Southwest 416 479 36,000  Level Los Angeles Center
Thu 06:52:12 PM 36.9714 -113.4131 231° Southwest 416 479 36,000  Level Los Angeles Center
Thu 06:53:14 PM 36.8825 -113.5478 231° Southwest 417 480 36,000  Level Los Angeles Center
Thu 06:54:16 PM 36.8089 -113.6586 230° Southwest 416 479 36,000  Level Los Angeles Center
Thu 06:55:31 PM 36.7342 -113.7711 230° Southwest 419 482 36,000  Level Los Angeles Center
Thu 06:56:33 PM 36.6450 -113.9056 230° Southwest 420 483 36,000  Level Los Angeles Center
Thu 06:57:35 PM 36.5686 -114.0167 229° Southwest 421 484 36,000  Level Los Angeles Center
Thu 06:58:37 PM 36.4817 -114.1486 231° Southwest 419 482 36,000  Level Los Angeles Center
Thu 06:59:39 PM 36.4061 -114.2597 230° Southwest 421 484 36,000  Level Los Angeles Center
Thu 07:00:42 PM 36.3306 -114.3728 230° Southwest 424 488 36,000  Level Los Angeles Center
Thu 07:01:44 PM 36.2539 -114.4861 230° Southwest 426 490 36,000  Level Los Angeles Center
Thu 07:02:46 PM 36.1783 -114.5972 230° Southwest 423 487 36,000 -48 Level Los Angeles Center
Thu 07:03:48 PM 36.1022 -114.7086 230° Southwest 421 484 35,900  Descending Los Angeles Center
Thu 07:04:50 PM 36.0097 -114.8442 230° Southwest 426 490 36,000 48 Climbing Los Angeles Center
Thu 07:05:52 PM 35.9289 -114.9542 228° Southwest 429 494 36,000  Level Los Angeles Center
Thu 07:06:54 PM 35.8492 -115.0636 228° Southwest 427 491 36,000  Level Los Angeles Center
Thu 07:07:56 PM 35.7689 -115.1719 228° Southwest 427 491 36,000  Level Los Angeles Center
Thu 07:08:59 PM 35.6889 -115.2803 228° Southwest 426 490 36,000  Level Los Angeles Center
Thu 07:10:01 PM 35.6094 -115.3883 228° Southwest 425 489 36,000  Level Los Angeles Center
Thu 07:11:03 PM 35.5292 -115.4961 228° Southwest 425 489 36,000  Level Los Angeles Center
Thu 07:12:05 PM 35.4492 -115.6036 228° Southwest 427 491 36,000 -290 Level Los Angeles Center
Thu 07:13:07 PM 35.3536 -115.7322 228° Southwest 427 491 35,400 -823 Descending Los Angeles Center
Thu 07:14:09 PM 35.2722 -115.8389 227° Southwest 428 493 34,300 -968 Descending Los Angeles Center
Thu 07:15:11 PM 35.1919 -115.9461 228° Southwest 428 493 33,400 -919 Descending Los Angeles Center
Thu 07:16:13 PM 35.1119 -116.0506 227° Southwest 423 487 32,400 -968 Descending Los Angeles Center
Thu 07:17:15 PM 35.0325 -116.1542 227° Southwest 419 482 31,400 -960 Descending Los Angeles Center
Thu 07:18:18 PM 34.9422 -116.2481 220° Southwest 426 490 30,400 -1,056 Descending Los Angeles Center
Thu 07:19:20 PM 34.8361 -116.3575 220° Southwest 419 482 29,200 -1,065 Descending Los Angeles Center
Thu 07:20:22 PM 34.7494 -116.4478 221° Southwest 412 474 28,200 -968 Descending Los Angeles Center
Thu 07:21:24 PM 34.6650 -116.5361 221° Southwest 402 463 27,200 -726 Descending Los Angeles Center
Thu 07:22:26 PM 34.5811 -116.6231 220° Southwest 396 456 26,700 -726 Descending Los Angeles Center
Thu 07:23:28 PM 34.4978 -116.7083 220° Southwest 392 451 25,700 -1,016 Descending Los Angeles Center
Thu 07:24:30 PM 34.4125 -116.7939 220° Southwest 395 455 24,600 -1,324 Descending Los Angeles Center
Thu 07:25:44 PM 34.3153 -116.8942 220° Southwest 381 438 22,700 -1,632 Descending Los Angeles Center
Thu 07:26:46 PM 34.2375 -116.9756 221° Southwest 371 427 20,900 -1,776 Descending Los Angeles Center
Thu 07:27:49 PM 34.1419 -117.0711 220° Southwest 370 426 19,000 -1,104 Descending Los Angeles Center
Thu 07:28:51 PM 34.0708 -117.1625 227° Southwest 345 397 18,600 -945 Descending Los Angeles Center
Thu 07:29:56 PM 33.9833 -117.2167 207° Southwest 334 384 17,000 -1,248 Descending Southern California TRACON
Thu 07:30:56 PM 33.9667 -117.3167 259° West 305 351 16,000 -950 Descending Southern California TRACON
Thu 07:31:56 PM 33.9667 -117.4167 270° West 299 344 15,100 -1,350 Descending Southern California TRACON
Thu 07:32:56 PM 33.9833 -117.5167 281° West 301 346 13,300 -1,684 Descending Southern California TRACON
Thu 07:33:50 PM 34.0000 -117.6000 284° West 298 343 11,900 -1,500 Descending Southern California TRACON
Thu 07:34:56 PM 34.0000 -117.7000 270° West 292 336 10,300 -1,429 Descending Southern California TRACON
Thu 07:35:56 PM 34.0000 -117.8000 270° West 269 310 8,900 -1,200 Descending Southern California TRACON
Thu 07:36:56 PM 33.9833 -117.8833 256° West 236 272 7,900 -1,250 Descending Southern California TRACON
Thu 07:37:56 PM 33.9833 -117.9500 270° West 231 266 6,400 -1,200 Descending Southern California TRACON
Thu 07:38:56 PM 33.9667 -118.0333 256° West 209 241 5,500 -750 Descending Southern California TRACON
Thu 07:39:56 PM 33.9667 -118.1000 270° West 203 234 4,900 -650 Descending Southern California TRACON
Thu 07:40:56 PM 33.9667 -118.1500 270° West 179 206 4,200 -815 Descending Southern California TRACON
Thu 07:41:17 PM 33.9589 -118.1764 250° West 188 216 3,800 -1,084 Descending Los Angeles Center
Thu 07:42:19 PM 33.9528 -118.2344 263° West 180 207 2,700 -1,065 Descending Los Angeles Center

Login

Don't have an account? Register now (free) for customized features, flight alerts, and more!